createdAt,value
2017-05-19T00:01:52.084Z,99.90
2017-05-19T00:04:20.592Z,99.90
2017-05-19T00:06:49.104Z,99.90
2017-05-19T00:09:17.722Z,99.90
2017-05-19T00:11:46.235Z,99.90
2017-05-19T00:14:14.745Z,99.90
2017-05-19T00:16:43.293Z,99.90
2017-05-19T00:19:11.798Z,99.90
2017-05-19T00:21:40.311Z,99.90
2017-05-19T00:24:08.864Z,99.90
2017-05-19T00:26:37.376Z,99.90
2017-05-19T00:29:05.892Z,99.90
2017-05-19T00:31:34.436Z,99.90
2017-05-19T00:34:03.015Z,99.90
2017-05-19T00:36:31.541Z,99.90
2017-05-19T00:39:00.104Z,99.90
2017-05-19T00:41:28.617Z,99.90
2017-05-19T00:43:57.234Z,99.90
2017-05-19T00:46:25.799Z,99.90
2017-05-19T00:48:54.318Z,99.90
2017-05-19T00:51:22.823Z,99.90
2017-05-19T00:53:51.372Z,99.90
2017-05-19T00:56:19.931Z,99.90
2017-05-19T00:58:48.461Z,99.90
2017-05-19T01:01:17.040Z,99.90
2017-05-19T01:03:45.550Z,99.90
2017-05-19T01:06:14.052Z,99.90
2017-05-19T01:08:42.605Z,99.90
2017-05-19T01:11:11.109Z,99.90
2017-05-19T01:13:39.625Z,99.90
2017-05-19T01:16:08.188Z,99.90
2017-05-19T01:18:36.700Z,99.90
2017-05-19T01:21:05.326Z,99.90
2017-05-19T01:23:33.882Z,99.90
2017-05-19T01:26:03.438Z,99.90
2017-05-19T01:28:31.946Z,99.90
2017-05-19T01:31:00.494Z,99.90
2017-05-19T01:33:29.054Z,99.90
2017-05-19T01:35:57.605Z,99.90
2017-05-19T01:38:26.407Z,99.90
2017-05-19T01:40:54.927Z,99.90
2017-05-19T01:43:23.428Z,99.90
2017-05-19T01:45:52.004Z,99.90
2017-05-19T01:48:20.527Z,99.90
2017-05-19T01:50:49.062Z,99.90
2017-05-19T01:53:17.669Z,99.90
2017-05-19T01:55:46.166Z,99.90
2017-05-19T01:58:14.679Z,99.90
2017-05-19T02:00:43.221Z,99.90
2017-05-19T02:03:11.733Z,99.90
2017-05-19T02:05:40.241Z,99.90
2017-05-19T02:08:08.793Z,99.90
2017-05-19T02:10:37.300Z,99.90
2017-05-19T02:13:05.825Z,99.90
2017-05-19T02:15:34.372Z,99.90
2017-05-19T02:18:02.882Z,99.90
2017-05-19T02:20:31.459Z,99.90
2017-05-19T02:23:00.014Z,99.90
2017-05-19T02:25:28.524Z,99.90
2017-05-19T02:27:57.034Z,99.90
2017-05-19T02:30:25.575Z,99.90
2017-05-19T02:32:54.082Z,99.90
2017-05-19T02:35:22.593Z,99.90
2017-05-19T02:37:51.145Z,99.90
2017-05-19T02:40:19.675Z,99.90
2017-05-19T02:42:48.182Z,99.90
2017-05-19T02:45:16.741Z,99.90
2017-05-19T02:47:45.249Z,99.90
2017-05-19T02:50:13.760Z,99.90
2017-05-19T02:52:42.309Z,99.90
2017-05-19T02:55:10.816Z,99.90
2017-05-19T02:57:39.325Z,99.90
2017-05-19T03:00:07.877Z,99.90
2017-05-19T03:02:36.377Z,99.90
2017-05-19T03:05:04.893Z,99.90
2017-05-19T03:07:33.445Z,99.90
2017-05-19T03:10:01.962Z,99.90
2017-05-19T03:12:30.473Z,99.90
2017-05-19T03:14:59.026Z,99.90
2017-05-19T03:17:27.529Z,99.90
2017-05-19T03:19:56.037Z,99.90
2017-05-19T03:22:24.589Z,99.90
2017-05-19T03:24:53.100Z,99.90
2017-05-19T03:27:21.608Z,99.90
2017-05-19T03:29:50.155Z,99.90
2017-05-19T03:32:18.717Z,99.90
2017-05-19T03:34:47.232Z,99.90
2017-05-19T03:37:15.784Z,99.90
2017-05-19T03:39:44.297Z,99.90
2017-05-19T03:42:12.801Z,99.90
2017-05-19T03:44:41.350Z,99.00
2017-05-19T03:47:09.861Z,98.20
2017-05-19T03:49:38.376Z,97.60
2017-05-19T03:52:06.955Z,97.30
2017-05-19T03:54:35.462Z,94.40
2017-05-19T03:57:03.972Z,92.00
2017-05-19T03:59:32.545Z,84.50
2017-05-19T04:02:01.048Z,75.00
2017-05-19T04:04:29.548Z,66.50
2017-05-19T04:06:58.094Z,62.30
2017-05-19T04:09:26.597Z,60.70
2017-05-19T04:11:55.123Z,60.50
2017-05-19T04:14:23.700Z,60.00
2017-05-19T04:16:52.225Z,55.80
2017-05-19T04:19:20.734Z,52.90
2017-05-19T04:21:49.283Z,50.60
2017-05-19T04:24:17.788Z,47.20
2017-05-19T04:26:46.307Z,44.40
2017-05-19T04:29:14.864Z,44.10
2017-05-19T04:31:43.374Z,41.10
2017-05-19T04:34:11.889Z,40.60
2017-05-19T04:36:40.436Z,40.30
2017-05-19T04:39:08.940Z,38.80
2017-05-19T04:41:37.448Z,40.20
2017-05-19T04:44:06.008Z,41.90
2017-05-19T04:46:34.516Z,42.60
2017-05-19T04:49:03.066Z,45.60
2017-05-19T04:51:31.645Z,46.70
2017-05-19T04:54:00.171Z,46.90
2017-05-19T04:56:28.681Z,47.60
2017-05-19T04:58:57.233Z,46.60
2017-05-19T05:01:25.739Z,46.60
2017-05-19T05:03:54.260Z,47.80
2017-05-19T05:06:22.813Z,48.20
2017-05-19T05:08:51.325Z,46.30
2017-05-19T05:11:19.836Z,43.50
2017-05-19T05:13:48.392Z,41.90
2017-05-19T05:16:16.895Z,40.10
2017-05-19T05:18:45.396Z,37.20
2017-05-19T05:21:13.980Z,36.30
2017-05-19T05:23:42.488Z,33.30
2017-05-19T05:26:11.056Z,32.30
2017-05-19T05:28:39.882Z,31.60
2017-05-19T05:31:08.391Z,29.20
2017-05-19T05:33:36.896Z,28.50
2017-05-19T05:36:05.441Z,28.30
2017-05-19T05:38:33.954Z,27.70
2017-05-19T05:41:02.459Z,27.40
2017-05-19T05:43:31.010Z,27.30
2017-05-19T05:45:59.519Z,25.80
2017-05-19T05:48:28.026Z,25.80
2017-05-19T05:50:56.599Z,24.40
2017-05-19T05:53:25.125Z,23.40
2017-05-19T05:55:53.633Z,21.50
2017-05-19T05:58:22.222Z,22.70
2017-05-19T06:00:50.735Z,23.30
2017-05-19T06:03:19.250Z,22.90
2017-05-19T06:05:47.817Z,22.80
2017-05-19T06:08:16.325Z,22.10
2017-05-19T06:10:44.837Z,22.40
2017-05-19T06:13:13.432Z,22.70
2017-05-19T06:15:41.955Z,23.30
2017-05-19T06:18:10.472Z,22.50
2017-05-19T06:20:39.025Z,21.90
2017-05-19T06:23:07.535Z,21.40
2017-05-19T06:25:36.032Z,20.70
2017-05-19T06:28:04.579Z,20.80
2017-05-19T06:30:33.087Z,20.30
2017-05-19T06:33:03.488Z,19.40
2017-05-19T06:35:32.047Z,20.60
2017-05-19T06:38:00.531Z,20.60
2017-05-19T06:40:29.014Z,20.80
2017-05-19T06:42:57.550Z,20.50
2017-05-19T06:45:26.037Z,20.10
2017-05-19T06:47:54.523Z,18.80
2017-05-19T06:50:23.067Z,18.50
2017-05-19T06:52:51.563Z,18.40
2017-05-19T06:55:20.064Z,17.30
2017-05-19T06:57:48.608Z,17.70
2017-05-19T07:00:17.099Z,17.50
2017-05-19T07:02:45.592Z,17.60
2017-05-19T07:05:14.126Z,18.70
2017-05-19T07:07:42.629Z,18.00
2017-05-19T07:10:11.147Z,18.50
2017-05-19T07:12:39.683Z,18.20
2017-05-19T07:15:08.169Z,18.20
2017-05-19T07:17:36.659Z,18.40
2017-05-19T07:20:05.196Z,18.60
2017-05-19T07:22:33.693Z,19.20
2017-05-19T07:25:02.192Z,19.20
2017-05-19T07:27:30.724Z,18.10
2017-05-19T07:29:59.214Z,17.90
2017-05-19T07:32:27.703Z,17.90
2017-05-19T07:34:56.259Z,17.30
2017-05-19T07:37:24.747Z,15.20
2017-05-19T07:39:53.252Z,16.20
2017-05-19T07:42:21.787Z,15.70
2017-05-19T07:44:50.281Z,15.80
2017-05-19T07:47:18.777Z,16.10
2017-05-19T07:49:47.315Z,16.20
2017-05-19T07:52:15.810Z,15.30
2017-05-19T07:54:44.304Z,15.70
2017-05-19T07:57:12.868Z,16.00
2017-05-19T07:59:41.369Z,15.60
2017-05-19T08:02:09.859Z,14.80
2017-05-19T08:04:38.396Z,13.50
2017-05-19T08:07:06.892Z,14.50
2017-05-19T08:09:35.385Z,16.10
2017-05-19T08:12:03.919Z,17.00
2017-05-19T08:14:32.415Z,17.20
2017-05-19T08:17:00.905Z,16.60
2017-05-19T08:19:29.435Z,16.60
2017-05-19T08:21:57.918Z,17.30
2017-05-19T08:24:26.405Z,16.40
2017-05-19T08:26:54.943Z,15.90
2017-05-19T08:29:23.439Z,16.40
2017-05-19T08:31:51.931Z,16.70
2017-05-19T08:34:20.471Z,18.40
2017-05-19T08:36:48.960Z,18.10
2017-05-19T08:39:17.462Z,17.70
2017-05-19T08:41:45.999Z,17.40
2017-05-19T08:44:14.492Z,16.80
2017-05-19T08:46:42.987Z,15.80
2017-05-19T08:49:11.538Z,15.30
2017-05-19T08:51:40.029Z,16.00
2017-05-19T08:54:08.519Z,15.20
2017-05-19T08:56:37.048Z,15.10
2017-05-19T08:59:05.535Z,14.80
2017-05-19T09:01:34.022Z,14.70
2017-05-19T09:04:02.555Z,14.50
2017-05-19T09:06:31.042Z,14.60
2017-05-19T09:08:59.539Z,14.10
2017-05-19T09:11:28.075Z,14.40
2017-05-19T09:13:56.567Z,15.80
2017-05-19T09:16:25.065Z,15.70
2017-05-19T09:18:53.615Z,15.10
2017-05-19T09:21:22.110Z,14.40
2017-05-19T09:23:50.598Z,15.60
2017-05-19T09:26:19.126Z,16.70
2017-05-19T09:28:47.610Z,18.20
2017-05-19T09:31:16.095Z,19.50
2017-05-19T09:33:44.631Z,21.10
2017-05-19T09:36:13.126Z,22.40
2017-05-19T09:38:41.614Z,21.10
2017-05-19T09:41:10.146Z,22.90
2017-05-19T09:43:38.647Z,23.90
2017-05-19T09:46:07.135Z,25.20
2017-05-19T09:48:35.673Z,26.00
2017-05-19T09:51:04.163Z,26.90
2017-05-19T09:53:32.670Z,25.80
2017-05-19T09:56:01.207Z,26.50
2017-05-19T09:58:29.694Z,27.40
2017-05-19T10:00:58.196Z,26.30
2017-05-19T10:03:26.731Z,27.20
2017-05-19T10:05:55.219Z,27.50
2017-05-19T10:08:23.718Z,27.50
2017-05-19T10:10:52.243Z,27.80
2017-05-19T10:13:20.727Z,28.30
2017-05-19T10:15:49.210Z,28.20
2017-05-19T10:18:17.738Z,28.10
2017-05-19T10:20:46.226Z,28.30
2017-05-19T10:23:14.725Z,28.30
2017-05-19T10:25:43.259Z,28.70
2017-05-19T10:28:11.751Z,27.90
2017-05-19T10:30:40.251Z,29.70
2017-05-19T10:33:08.788Z,28.30
2017-05-19T10:35:37.280Z,28.40
2017-05-19T10:38:05.771Z,28.90
2017-05-19T10:40:34.302Z,29.40
2017-05-19T10:43:02.791Z,28.60
2017-05-19T10:45:31.282Z,29.00
2017-05-19T10:47:59.834Z,28.70
2017-05-19T10:50:28.323Z,28.30
2017-05-19T10:52:56.820Z,29.30
2017-05-19T10:55:25.364Z,28.20
2017-05-19T10:57:53.864Z,29.50
2017-05-19T11:00:22.347Z,28.40
2017-05-19T11:02:50.878Z,28.70
2017-05-19T11:05:19.366Z,29.30
2017-05-19T11:07:47.863Z,28.40
2017-05-19T11:10:16.767Z,28.10
2017-05-19T11:12:45.254Z,28.40
2017-05-19T11:15:13.740Z,28.10
2017-05-19T11:17:42.267Z,27.90
2017-05-19T11:20:10.391Z,27.20
2017-05-19T11:22:38.885Z,27.80
2017-05-19T11:25:07.418Z,27.50
2017-05-19T11:27:35.920Z,27.70
2017-05-19T11:30:04.419Z,27.70
2017-05-19T11:32:32.951Z,27.70
2017-05-19T11:35:01.439Z,28.40
2017-05-19T11:37:29.933Z,28.30
2017-05-19T11:39:58.474Z,27.30
2017-05-19T11:42:26.961Z,27.80
2017-05-19T11:44:55.451Z,27.50
2017-05-19T11:47:23.979Z,27.50
2017-05-19T11:49:52.462Z,27.60
2017-05-19T11:52:20.947Z,28.30
2017-05-19T11:54:49.477Z,26.60
2017-05-19T11:57:17.969Z,27.80
2017-05-19T11:59:46.462Z,27.00
2017-05-19T12:02:14.987Z,26.70
2017-05-19T12:04:43.488Z,27.00
2017-05-19T12:07:11.981Z,27.40
2017-05-19T12:10:02.278Z,27.10
2017-05-19T12:12:30.762Z,27.40
2017-05-19T12:14:59.253Z,27.40
2017-05-19T12:17:27.795Z,26.80
2017-05-19T12:19:56.290Z,27.00
2017-05-19T12:22:24.783Z,27.80
2017-05-19T12:24:53.312Z,27.60
2017-05-19T12:27:21.816Z,27.50
2017-05-19T12:29:50.311Z,27.00
2017-05-19T12:32:18.852Z,26.30
2017-05-19T12:34:47.342Z,26.50
2017-05-19T12:37:15.836Z,26.00
2017-05-19T12:39:44.520Z,26.10
2017-05-19T12:42:13.007Z,26.50
2017-05-19T12:44:41.500Z,26.90
2017-05-19T12:47:10.034Z,26.20
2017-05-19T12:49:38.531Z,26.50
2017-05-19T12:52:07.014Z,27.10
2017-05-19T12:54:35.556Z,27.90
2017-05-19T12:57:04.057Z,27.00
2017-05-19T12:59:32.556Z,27.70
2017-05-19T13:02:01.100Z,28.10
2017-05-19T13:04:29.611Z,27.70
2017-05-19T13:06:58.113Z,27.00
2017-05-19T13:09:26.652Z,26.30
2017-05-19T13:11:55.154Z,25.10
2017-05-19T13:14:23.653Z,26.10
2017-05-19T13:16:52.207Z,26.80
2017-05-19T13:19:20.714Z,27.50
2017-05-19T13:21:49.218Z,27.70
2017-05-19T13:24:17.765Z,27.90
2017-05-19T13:26:46.261Z,26.80
2017-05-19T13:29:14.763Z,27.20
2017-05-19T13:31:43.312Z,27.20
2017-05-19T13:34:11.817Z,27.10
2017-05-19T13:36:40.321Z,27.80
2017-05-19T13:39:08.859Z,27.50
2017-05-19T13:41:37.358Z,27.80
2017-05-19T13:44:05.856Z,27.40
2017-05-19T13:46:34.405Z,27.80
2017-05-19T13:49:02.899Z,27.80
2017-05-19T13:51:31.405Z,28.30
2017-05-19T13:53:59.949Z,28.30
2017-05-19T13:56:28.453Z,28.20
2017-05-19T13:58:56.955Z,28.50
2017-05-19T14:01:25.522Z,27.50
2017-05-19T14:03:54.034Z,27.60
2017-05-19T14:06:22.544Z,27.60
2017-05-19T14:08:51.088Z,27.20
2017-05-19T14:11:19.584Z,27.70
2017-05-19T14:13:48.089Z,28.20
2017-05-19T14:16:16.637Z,27.70
2017-05-19T14:18:45.150Z,28.20
2017-05-19T14:21:13.660Z,28.20
2017-05-19T14:23:42.205Z,27.70
2017-05-19T14:26:10.708Z,27.70
2017-05-19T14:28:39.215Z,27.50
2017-05-19T14:31:07.757Z,27.90
2017-05-19T14:33:36.253Z,27.80
2017-05-19T14:36:04.760Z,27.70
2017-05-19T14:38:33.305Z,27.80
2017-05-19T14:41:01.825Z,27.20
2017-05-19T14:43:30.333Z,27.40
2017-05-19T14:45:58.870Z,27.40
2017-05-19T14:48:27.380Z,27.80
2017-05-19T14:50:55.877Z,28.00
2017-05-19T14:53:24.437Z,27.60
2017-05-19T14:55:52.936Z,27.60
2017-05-19T14:58:21.435Z,28.10
2017-05-19T15:00:49.976Z,27.50
2017-05-19T15:03:18.484Z,27.60
2017-05-19T15:05:47.054Z,27.60
2017-05-19T15:08:15.597Z,27.60
2017-05-19T15:10:44.095Z,28.00
2017-05-19T15:13:12.602Z,27.70
2017-05-19T15:15:41.183Z,28.20
2017-05-19T15:18:09.685Z,28.20
2017-05-19T15:20:38.188Z,27.90
2017-05-19T15:23:06.728Z,28.30
2017-05-19T15:25:35.234Z,28.00
2017-05-19T15:28:03.732Z,27.90
2017-05-19T15:30:32.268Z,27.60
2017-05-19T15:33:00.771Z,27.60
2017-05-19T15:35:29.276Z,28.40
2017-05-19T15:37:57.839Z,27.70
2017-05-19T15:40:26.341Z,27.60
2017-05-19T15:42:54.840Z,27.60
2017-05-19T15:45:23.397Z,27.40
2017-05-19T15:47:51.902Z,27.40
2017-05-19T15:50:20.404Z,27.50
2017-05-19T15:52:49.360Z,27.50
2017-05-19T15:55:17.865Z,27.50
2017-05-19T15:57:46.371Z,27.50
2017-05-19T16:00:14.912Z,27.70
2017-05-19T16:02:43.458Z,27.50
2017-05-19T16:05:11.985Z,27.40
2017-05-19T16:07:40.561Z,27.80
2017-05-19T16:10:09.070Z,28.00
2017-05-19T16:12:37.627Z,28.00
2017-05-19T16:15:06.188Z,28.20
2017-05-19T16:17:34.724Z,28.40
2017-05-19T16:20:04.032Z,28.70
2017-05-19T16:22:32.855Z,28.10
2017-05-19T16:25:01.364Z,28.40
2017-05-19T16:27:29.872Z,28.60
2017-05-19T16:29:58.429Z,28.80
2017-05-19T16:32:26.966Z,29.10
2017-05-19T16:34:55.568Z,29.30
2017-05-19T16:37:24.132Z,29.20
2017-05-19T16:39:52.651Z,29.80
2017-05-19T16:42:21.153Z,29.10
2017-05-19T16:44:49.699Z,29.40
2017-05-19T16:47:18.205Z,29.80
2017-05-19T16:49:46.714Z,29.70
2017-05-19T16:52:15.257Z,29.70
2017-05-19T16:54:43.757Z,30.00
2017-05-19T16:57:12.263Z,30.00
2017-05-19T16:59:40.801Z,30.20
2017-05-19T17:02:09.304Z,30.40
2017-05-19T17:04:37.810Z,30.90
2017-05-19T17:07:06.353Z,31.10
2017-05-19T17:09:34.843Z,31.30
2017-05-19T17:12:03.358Z,31.50
2017-05-19T17:14:31.917Z,32.00
2017-05-19T17:17:00.426Z,32.30
2017-05-19T17:19:28.934Z,32.40
2017-05-19T17:21:57.476Z,32.30
2017-05-19T17:24:25.998Z,33.00
2017-05-19T17:26:54.500Z,33.00
2017-05-19T17:29:23.040Z,33.30
2017-05-19T17:31:51.546Z,33.50
2017-05-19T17:34:20.042Z,33.50
2017-05-19T17:36:48.586Z,33.70
2017-05-19T17:39:17.093Z,33.80
2017-05-19T17:41:45.595Z,33.90
2017-05-19T17:44:14.152Z,34.40
2017-05-19T17:46:42.657Z,34.90
2017-05-19T17:49:11.173Z,34.90
2017-05-19T17:51:39.731Z,34.70
2017-05-19T17:54:08.232Z,34.20
2017-05-19T17:56:36.741Z,35.50
2017-05-19T17:59:05.419Z,34.90
2017-05-19T18:01:33.925Z,35.20
2017-05-19T18:04:02.435Z,35.50
2017-05-19T18:06:30.997Z,35.90
2017-05-19T18:08:59.515Z,36.50
2017-05-19T18:11:28.036Z,37.40
2017-05-19T18:13:56.576Z,37.30
2017-05-19T18:16:25.082Z,37.50
2017-05-19T18:18:53.688Z,37.60
2017-05-19T18:21:22.235Z,37.80
2017-05-19T18:23:50.738Z,37.70
2017-05-19T18:26:19.264Z,38.00
2017-05-19T18:28:47.809Z,38.40
2017-05-19T18:31:16.311Z,39.40
2017-05-19T18:33:44.816Z,40.30
2017-05-19T18:36:13.351Z,41.20
2017-05-19T18:38:41.873Z,42.00
2017-05-19T18:41:10.401Z,42.30
2017-05-19T18:43:38.945Z,43.10
2017-05-19T18:46:07.448Z,43.80
2017-05-19T18:48:35.959Z,44.40
2017-05-19T18:51:04.530Z,45.10
2017-05-19T18:54:00.297Z,45.10
2017-05-19T18:56:28.800Z,45.90
2017-05-19T18:58:57.303Z,46.40
2017-05-19T19:01:25.854Z,46.90
2017-05-19T19:03:54.362Z,46.30
2017-05-19T19:06:22.868Z,45.40
2017-05-19T19:08:51.409Z,45.80
2017-05-19T19:11:19.912Z,44.80
2017-05-19T19:13:48.412Z,44.80
2017-05-19T19:16:16.969Z,44.60
2017-05-19T19:18:45.477Z,44.50
2017-05-19T19:21:13.993Z,44.50
2017-05-19T19:23:42.568Z,44.80
2017-05-19T19:26:11.077Z,44.20
2017-05-19T19:28:39.580Z,44.50
2017-05-19T19:31:08.131Z,44.70
2017-05-19T19:33:36.639Z,45.10
2017-05-19T19:36:05.152Z,45.40
2017-05-19T19:38:33.693Z,45.30
2017-05-19T19:41:02.198Z,45.50
2017-05-19T19:43:30.715Z,45.70
2017-05-19T19:45:59.265Z,45.30
2017-05-19T19:48:27.765Z,46.00
2017-05-19T19:50:56.289Z,46.80
2017-05-19T19:53:24.855Z,47.20
2017-05-19T19:55:53.358Z,47.50
2017-05-19T19:58:21.873Z,47.20
2017-05-19T20:00:50.572Z,47.50
2017-05-19T20:03:19.097Z,46.50
2017-05-19T20:05:47.611Z,46.50
2017-05-19T20:08:16.186Z,45.90
2017-05-19T20:10:44.688Z,46.30
2017-05-19T20:13:13.203Z,45.50
2017-05-19T20:15:41.883Z,45.50
2017-05-19T20:18:11.309Z,45.50
2017-05-19T20:20:40.081Z,45.00
2017-05-19T20:23:08.663Z,45.30
2017-05-19T20:25:37.237Z,44.70
2017-05-19T20:28:06.462Z,44.70
2017-05-19T20:30:35.119Z,44.70
2017-05-19T20:33:03.709Z,44.60
2017-05-19T20:35:32.299Z,44.30
2017-05-19T20:38:01.036Z,44.70
2017-05-19T20:40:29.541Z,45.00
2017-05-19T20:42:58.290Z,45.20
2017-05-19T20:45:26.862Z,45.60
2017-05-19T20:47:55.386Z,46.20
2017-05-19T20:50:23.916Z,46.60
2017-05-19T20:52:52.507Z,47.30
2017-05-19T20:55:21.086Z,48.10
2017-05-19T20:57:49.611Z,48.50
2017-05-19T21:00:18.188Z,49.20
2017-05-19T21:02:46.704Z,49.90
2017-05-19T21:05:15.248Z,51.90
2017-05-19T21:07:43.800Z,51.80
2017-05-19T21:10:12.299Z,51.90
2017-05-19T21:12:40.824Z,52.40
2017-05-19T21:15:09.381Z,52.80
2017-05-19T21:17:37.885Z,53.30
2017-05-19T21:20:06.392Z,54.30
2017-05-19T21:22:35.549Z,54.30
2017-05-19T21:25:04.198Z,54.60
2017-05-19T21:27:32.759Z,55.30
2017-05-19T21:30:01.324Z,55.00
2017-05-19T21:32:29.857Z,55.00
2017-05-19T21:34:58.379Z,55.60
2017-05-19T21:37:26.924Z,56.10
2017-05-19T21:39:55.428Z,57.40
2017-05-19T21:42:23.943Z,58.80
2017-05-19T21:44:52.505Z,59.40
2017-05-19T21:47:21.015Z,59.70
2017-05-19T21:49:49.525Z,61.20
2017-05-19T21:52:18.100Z,62.30
2017-05-19T21:54:46.604Z,61.10
2017-05-19T21:57:15.105Z,63.00
2017-05-19T21:59:43.652Z,64.90
2017-05-19T22:02:12.159Z,67.00
2017-05-19T22:04:40.660Z,67.10
2017-05-19T22:07:09.210Z,64.80
2017-05-19T22:09:37.712Z,65.60
2017-05-19T22:12:06.214Z,64.90
2017-05-19T22:14:34.766Z,65.20
2017-05-19T22:17:03.269Z,65.80
2017-05-19T22:19:31.776Z,65.50
2017-05-19T22:22:00.320Z,66.70
2017-05-19T22:24:28.825Z,66.30
2017-05-19T22:26:57.332Z,67.50
2017-05-19T22:29:25.880Z,67.80
2017-05-19T22:31:54.387Z,69.60
2017-05-19T22:34:22.898Z,69.50
2017-05-19T22:36:51.448Z,69.30
2017-05-19T22:39:19.956Z,70.20
2017-05-19T22:41:48.480Z,73.50
2017-05-19T22:44:17.023Z,74.50
2017-05-19T22:46:45.525Z,76.50
2017-05-19T22:49:14.213Z,78.10
2017-05-19T22:51:42.762Z,78.00
2017-05-19T22:54:11.264Z,78.00
2017-05-19T22:56:39.779Z,78.60
2017-05-19T22:59:08.326Z,79.40
2017-05-19T23:01:36.829Z,79.30
2017-05-19T23:04:05.336Z,78.90
2017-05-19T23:06:33.880Z,80.10
2017-05-19T23:09:02.398Z,81.10
2017-05-19T23:11:30.909Z,83.50
2017-05-19T23:13:59.447Z,86.10
2017-05-19T23:16:27.952Z,89.50
2017-05-19T23:18:56.460Z,89.50
2017-05-19T23:21:25.053Z,90.50
2017-05-19T23:23:53.561Z,90.40
2017-05-19T23:26:22.069Z,90.50
2017-05-19T23:28:50.616Z,90.50
2017-05-19T23:31:19.130Z,90.40
2017-05-19T23:33:47.641Z,91.00
2017-05-19T23:36:16.199Z,91.40
2017-05-19T23:38:44.730Z,92.10
2017-05-19T23:41:13.254Z,92.50
2017-05-19T23:43:41.817Z,92.30
2017-05-19T23:46:10.323Z,92.60
2017-05-19T23:48:38.824Z,92.40
2017-05-19T23:51:07.373Z,92.20
2017-05-19T23:53:35.881Z,92.20
2017-05-19T23:56:04.384Z,92.50
2017-05-19T23:58:32.942Z,93.20
